Portada
METAR-TAF:

METAR-TAF

Aeroports :

Saglek Bay, Terranova i Labrador, Canadà

latitud: 58-20N, longitud: 062-35W, altitud: 483 m

Observació

L'informe es va fer fa 39 minuts, a les 17:00 UTC
Vent 5 kt del Oest/Sud-Oest
Temperatura -16°C
Humitat 55%
Pressió 1019 hPa

METAR: CWZZ 271700Z AUTO 25005KT ////SM NCD M16/M23 A3010

Hora: 13:39 (17:39 UTC)


TAF: manca

Observacions i pronòstics meteorològics de més de 4000 aeroports (METAR i TAF).

Les estacions disponibles són els punts grocs i vermells al mapa.

Posi el ratolí al punt desitjat per veure el nom de l'estació.

Feu clic per veure les observacions i els pronòstics meteorològics.

Per canviar el mapa: feu clic els botons verds amb una creu de color negre per apropar; al botó verd amb un guió per allunyar la imatge; o en les fletxes verdes per a mapes adjacents.


METAR-TAF: